createdAt,value
2017-04-11T00:00:16.008Z,6.52
2017-04-11T00:01:17.029Z,6.49
2017-04-11T00:02:17.793Z,6.52
2017-04-11T00:03:18.557Z,6.57
2017-04-11T00:04:19.323Z,6.62
2017-04-11T00:05:20.278Z,6.56
2017-04-11T00:06:21.293Z,6.59
2017-04-11T00:07:22.060Z,6.49
2017-04-11T00:08:22.829Z,6.51
2017-04-11T00:09:23.596Z,6.54
2017-04-11T00:10:24.363Z,6.45
2017-04-11T00:11:25.381Z,6.57
2017-04-11T00:12:26.150Z,6.38
2017-04-11T00:13:26.919Z,6.49
2017-04-11T00:14:27.686Z,6.48
2017-04-11T00:15:28.453Z,6.39
2017-04-11T00:16:29.468Z,6.41
2017-04-11T00:17:30.238Z,6.42
2017-04-11T00:18:31.009Z,6.41
2017-04-11T00:19:31.775Z,6.42
2017-04-11T00:20:32.545Z,6.38
2017-04-11T00:21:33.557Z,6.35
2017-04-11T00:22:34.323Z,6.39
2017-04-11T00:23:35.086Z,6.41
2017-04-11T00:24:35.859Z,6.33
2017-04-11T00:25:36.622Z,6.39
2017-04-11T00:26:37.640Z,6.39
2017-04-11T00:27:38.403Z,6.35
2017-04-11T00:28:39.171Z,6.39
2017-04-11T00:29:39.938Z,6.36
2017-04-11T00:30:40.704Z,6.39
2017-04-11T00:31:41.723Z,6.41
2017-04-11T00:32:42.489Z,6.39
2017-04-11T00:33:43.255Z,6.36
2017-04-11T00:34:44.024Z,6.38
2017-04-11T00:35:44.793Z,6.38
2017-04-11T00:36:45.806Z,6.39
2017-04-11T00:37:46.575Z,6.33
2017-04-11T00:38:47.375Z,6.35
2017-04-11T00:39:48.106Z,6.39
2017-04-11T00:40:48.876Z,6.19
2017-04-11T00:41:49.895Z,6.17
2017-04-11T00:42:50.665Z,6.20
2017-04-11T00:43:51.435Z,6.38
2017-04-11T00:44:52.203Z,6.20
2017-04-11T00:45:52.968Z,6.17
2017-04-11T00:46:53.986Z,6.26
2017-04-11T00:47:54.750Z,6.27
2017-04-11T00:48:55.516Z,6.14
2017-04-11T00:49:56.283Z,6.22
2017-04-11T00:50:57.048Z,6.22
2017-04-11T00:51:58.067Z,6.14
2017-04-11T00:52:58.833Z,6.24
2017-04-11T00:53:59.599Z,6.19
2017-04-11T00:55:00.365Z,6.12
2017-04-11T00:56:01.127Z,6.09
2017-04-11T00:57:02.144Z,6.16
2017-04-11T00:58:02.907Z,6.20
2017-04-11T00:59:03.682Z,6.09
2017-04-11T01:00:04.439Z,6.12
2017-04-11T01:01:05.210Z,6.11
2017-04-11T01:02:06.227Z,6.04
2017-04-11T01:03:06.993Z,6.08
2017-04-11T01:04:07.761Z,6.02
2017-04-11T01:05:08.529Z,6.08
2017-04-11T01:06:09.295Z,6.11
2017-04-11T01:07:10.313Z,6.05
2017-04-11T01:08:11.082Z,6.08
2017-04-11T01:09:11.849Z,6.09
2017-04-11T01:10:12.617Z,6.11
2017-04-11T01:11:13.381Z,6.08
2017-04-11T01:12:14.402Z,6.09
2017-04-11T01:13:15.171Z,6.08
2017-04-11T01:14:15.935Z,6.09
2017-04-11T01:15:16.704Z,6.11
2017-04-11T01:16:17.472Z,6.02
2017-04-11T01:17:18.485Z,6.09
2017-04-11T01:18:19.256Z,6.09
2017-04-11T01:19:20.020Z,6.07
2017-04-11T01:20:20.790Z,6.09
2017-04-11T01:21:21.555Z,6.05
2017-04-11T01:22:22.570Z,6.02
2017-04-11T01:23:23.334Z,6.04
2017-04-11T01:24:24.101Z,5.99
2017-04-11T01:25:24.869Z,5.97
2017-04-11T01:26:25.632Z,5.98
2017-04-11T01:27:26.645Z,5.94
2017-04-11T01:28:27.411Z,5.94
2017-04-11T01:29:28.177Z,5.91
2017-04-11T01:30:28.939Z,5.91
2017-04-11T01:31:29.708Z,5.97
2017-04-11T01:32:30.726Z,5.97
2017-04-11T01:33:31.493Z,5.86
2017-04-11T01:34:32.444Z,6.01
2017-04-11T01:35:33.207Z,5.91
2017-04-11T01:36:33.976Z,5.94
2017-04-11T01:37:34.991Z,5.94
2017-04-11T01:38:35.753Z,5.89
2017-04-11T01:39:36.518Z,5.83
2017-04-11T01:40:37.284Z,5.79
2017-04-11T01:41:38.052Z,5.76
2017-04-11T01:42:39.113Z,5.80
2017-04-11T01:43:39.879Z,5.79
2017-04-11T01:44:40.831Z,5.86
2017-04-11T01:45:41.599Z,5.80
2017-04-11T01:46:42.363Z,5.82
2017-04-11T01:47:43.378Z,5.80
2017-04-11T01:48:44.146Z,5.80
2017-04-11T01:49:44.912Z,5.82
2017-04-11T01:50:45.678Z,5.73
2017-04-11T01:51:46.444Z,5.82
2017-04-11T01:52:47.463Z,5.80
2017-04-11T01:53:48.228Z,5.73
2017-04-11T01:54:48.989Z,5.71
2017-04-11T01:55:49.757Z,5.73
2017-04-11T01:56:50.520Z,5.79
2017-04-11T01:57:51.537Z,5.73
2017-04-11T01:58:52.302Z,5.73
2017-04-11T01:59:53.070Z,5.75
2017-04-11T02:00:53.831Z,5.72
2017-04-11T02:01:54.594Z,5.82
2017-04-11T02:02:55.614Z,5.79
2017-04-11T02:03:56.376Z,5.82
2017-04-11T02:04:57.139Z,5.73
2017-04-11T02:05:57.907Z,5.72
2017-04-11T02:06:58.675Z,5.79
2017-04-11T02:07:59.688Z,5.76
2017-04-11T02:09:00.453Z,5.80
2017-04-11T02:10:01.221Z,5.79
2017-04-11T02:11:01.985Z,5.76
2017-04-11T02:12:02.750Z,5.80
2017-04-11T02:13:03.815Z,5.79
2017-04-11T02:14:04.578Z,5.75
2017-04-11T02:15:05.343Z,5.80
2017-04-11T02:16:06.109Z,5.79
2017-04-11T02:17:06.875Z,5.80
2017-04-11T02:18:07.892Z,5.80
2017-04-11T02:19:08.659Z,5.80
2017-04-11T02:20:09.425Z,5.73
2017-04-11T02:21:10.187Z,5.80
2017-04-11T02:22:10.953Z,5.79
2017-04-11T02:23:11.967Z,5.79
2017-04-11T02:24:12.731Z,5.79
2017-04-11T02:25:13.499Z,5.84
2017-04-11T02:26:14.264Z,5.86
2017-04-11T02:27:15.031Z,5.82
2017-04-11T02:28:16.093Z,5.83
2017-04-11T02:29:16.864Z,5.87
2017-04-11T02:30:17.632Z,5.89
2017-04-11T02:31:18.394Z,5.83
2017-04-11T02:32:19.160Z,5.84
2017-04-11T02:33:20.174Z,5.91
2017-04-11T02:34:20.942Z,5.86
2017-04-11T02:35:21.704Z,6.01
2017-04-11T02:36:22.471Z,5.98
2017-04-11T02:37:23.235Z,5.98
2017-04-11T02:38:24.249Z,5.93
2017-04-11T02:39:25.015Z,5.98
2017-04-11T02:40:25.781Z,5.97
2017-04-11T02:41:26.548Z,5.93
2017-04-11T02:42:27.311Z,5.97
2017-04-11T02:43:28.329Z,6.01
2017-04-11T02:44:29.090Z,5.99
2017-04-11T02:45:29.855Z,5.94
2017-04-11T02:46:30.617Z,5.91
2017-04-11T02:47:31.381Z,5.97
2017-04-11T02:48:32.396Z,6.05
2017-04-11T02:49:33.165Z,6.01
2017-04-11T02:50:33.931Z,5.94
2017-04-11T02:51:34.696Z,6.07
2017-04-11T02:52:35.462Z,6.05
2017-04-11T02:53:36.475Z,5.94
2017-04-11T02:54:37.239Z,6.08
2017-04-11T02:55:38.001Z,5.94
2017-04-11T02:56:38.767Z,6.02
2017-04-11T02:57:39.529Z,6.04
2017-04-11T02:58:40.543Z,5.99
2017-04-11T02:59:41.306Z,5.98
2017-04-11T03:00:42.071Z,5.99
2017-04-11T03:01:42.840Z,5.87
2017-04-11T03:02:43.602Z,5.97
2017-04-11T03:03:44.619Z,5.90
2017-04-11T03:04:45.386Z,5.93
2017-04-11T03:05:46.154Z,5.94
2017-04-11T03:06:46.918Z,5.94
2017-04-11T03:07:47.684Z,6.02
2017-04-11T03:08:48.698Z,5.87
2017-04-11T03:09:49.467Z,6.04
2017-04-11T03:10:50.234Z,5.93
2017-04-11T03:11:51.002Z,5.99
2017-04-11T03:12:51.764Z,5.94
2017-04-11T03:13:52.781Z,5.87
2017-04-11T03:14:53.551Z,5.94
2017-04-11T03:15:54.316Z,5.94
2017-04-11T03:16:55.082Z,5.86
2017-04-11T03:17:55.843Z,5.99
2017-04-11T03:18:56.859Z,5.91
2017-04-11T03:19:57.625Z,5.98
2017-04-11T03:20:58.391Z,5.98
2017-04-11T03:21:59.154Z,6.01
2017-04-11T03:22:59.919Z,5.91
2017-04-11T03:24:00.931Z,6.02
2017-04-11T03:25:01.693Z,5.99
2017-04-11T03:26:02.458Z,5.93
2017-04-11T03:27:03.229Z,5.98
2017-04-11T03:28:03.994Z,5.98
2017-04-11T03:29:05.003Z,5.91
2017-04-11T03:30:05.766Z,6.01
2017-04-11T03:31:06.531Z,6.01
2017-04-11T03:32:07.295Z,6.02
2017-04-11T03:33:08.058Z,6.04
2017-04-11T03:34:09.074Z,6.07
2017-04-11T03:35:09.837Z,6.09
2017-04-11T03:36:10.602Z,6.05
2017-04-11T03:37:11.372Z,6.05
2017-04-11T03:38:12.137Z,6.05
2017-04-11T03:39:13.202Z,6.09
2017-04-11T03:40:13.968Z,5.98
2017-04-11T03:41:14.734Z,6.08
2017-04-11T03:42:15.504Z,6.02
2017-04-11T03:43:16.268Z,6.07
2017-04-11T03:44:17.287Z,5.97
2017-04-11T03:45:18.047Z,6.04
2017-04-11T03:46:18.813Z,5.99
2017-04-11T03:47:19.577Z,6.02
2017-04-11T03:48:20.344Z,5.98
2017-04-11T03:49:21.355Z,6.04
2017-04-11T03:50:22.123Z,6.05
2017-04-11T03:51:22.888Z,5.99
2017-04-11T03:52:23.655Z,6.02
2017-04-11T03:53:24.418Z,5.91
2017-04-11T03:54:25.434Z,6.04
2017-04-11T03:55:26.200Z,6.05
2017-04-11T03:56:26.965Z,6.02
2017-04-11T03:57:27.731Z,5.99
2017-04-11T03:58:28.501Z,5.94
2017-04-11T03:59:29.516Z,5.99
2017-04-11T04:00:30.282Z,5.93
2017-04-11T04:01:31.053Z,5.90
2017-04-11T04:02:31.810Z,5.90
2017-04-11T04:03:32.575Z,5.99
2017-04-11T04:04:33.589Z,5.94
2017-04-11T04:05:34.353Z,5.94
2017-04-11T04:06:35.118Z,5.94
2017-04-11T04:07:35.885Z,5.86
2017-04-11T04:08:36.652Z,5.90
2017-04-11T04:09:37.666Z,5.97
2017-04-11T04:10:38.434Z,5.87
2017-04-11T04:11:39.196Z,5.98
2017-04-11T04:12:39.964Z,5.87
2017-04-11T04:13:40.729Z,5.89
2017-04-11T04:14:41.747Z,5.89
2017-04-11T04:15:42.512Z,5.84
2017-04-11T04:16:43.280Z,5.89
2017-04-11T04:17:44.043Z,5.83
2017-04-11T04:18:44.807Z,5.73
2017-04-11T04:19:45.821Z,5.73
2017-04-11T04:20:46.585Z,5.80
2017-04-11T04:21:47.352Z,5.72
2017-04-11T04:22:48.116Z,5.71
2017-04-11T04:23:48.885Z,5.69
2017-04-11T04:24:49.899Z,5.65
2017-04-11T04:25:50.665Z,5.71
2017-04-11T04:26:51.432Z,5.76
2017-04-11T04:27:52.198Z,5.72
2017-04-11T04:28:52.965Z,5.69
2017-04-11T04:29:53.985Z,5.65
2017-04-11T04:30:54.750Z,5.80
2017-04-11T04:31:55.519Z,5.69
2017-04-11T04:32:56.288Z,5.73
2017-04-11T04:33:57.054Z,5.73
2017-04-11T04:34:58.072Z,5.72
2017-04-11T04:35:58.841Z,5.76
2017-04-11T04:36:59.608Z,5.80
2017-04-11T04:38:00.378Z,5.76
2017-04-11T04:39:01.139Z,5.71
2017-04-11T04:40:02.157Z,5.86
2017-04-11T04:41:02.927Z,5.90
2017-04-11T04:42:03.692Z,5.89
2017-04-11T04:43:04.458Z,5.93
2017-04-11T04:44:05.227Z,5.86
2017-04-11T04:45:06.243Z,5.94
2017-04-11T04:46:07.015Z,5.99
2017-04-11T04:47:07.784Z,5.98
2017-04-11T04:48:08.554Z,5.97
2017-04-11T04:49:09.317Z,5.98
2017-04-11T04:50:10.522Z,6.01
2017-04-11T04:51:11.291Z,5.93
2017-04-11T04:52:12.057Z,6.04
2017-04-11T04:53:12.826Z,6.07
2017-04-11T04:54:13.601Z,6.04
2017-04-11T04:55:14.614Z,6.05
2017-04-11T04:56:15.383Z,6.05
2017-04-11T04:57:16.152Z,5.99
2017-04-11T04:58:16.922Z,6.14
2017-04-11T04:59:17.879Z,6.12
2017-04-11T05:00:18.894Z,6.08
2017-04-11T05:01:19.667Z,6.17
2017-04-11T05:02:20.437Z,6.19
2017-04-11T05:03:21.204Z,6.11
2017-04-11T05:04:21.976Z,6.20
2017-04-11T05:05:22.998Z,6.14
2017-04-11T05:06:23.764Z,6.16
2017-04-11T05:07:24.533Z,6.20
2017-04-11T05:08:25.303Z,6.28
2017-04-11T05:09:26.075Z,6.35
2017-04-11T05:10:27.097Z,6.19
2017-04-11T05:11:27.863Z,6.24
2017-04-11T05:12:28.636Z,6.31
2017-04-11T05:13:29.407Z,6.36
2017-04-11T05:14:30.180Z,6.28
2017-04-11T05:15:31.387Z,6.31
2017-04-11T05:16:32.151Z,6.36
2017-04-11T05:17:32.923Z,6.44
2017-04-11T05:18:33.690Z,6.38
2017-04-11T05:19:34.460Z,6.38
2017-04-11T05:20:35.720Z,6.31
2017-04-11T05:21:36.487Z,6.33
2017-04-11T05:22:37.261Z,6.41
2017-04-11T05:23:38.028Z,6.46
2017-04-11T05:24:38.799Z,6.35
2017-04-11T05:25:39.820Z,6.42
2017-04-11T05:26:40.588Z,6.45
2017-04-11T05:27:41.356Z,6.41
2017-04-11T05:28:42.126Z,6.38
2017-04-11T05:29:43.086Z,6.38
2017-04-11T05:30:44.107Z,6.33
2017-04-11T05:31:44.875Z,6.42
2017-04-11T05:32:45.643Z,6.39
2017-04-11T05:33:46.412Z,6.36
2017-04-11T05:34:47.177Z,6.46
2017-04-11T05:35:48.197Z,6.39
2017-04-11T05:36:48.968Z,6.35
2017-04-11T05:37:49.737Z,6.42
2017-04-11T05:38:50.688Z,6.39
2017-04-11T05:39:51.457Z,6.38
2017-04-11T05:40:52.476Z,6.51
2017-04-11T05:41:53.248Z,6.45
2017-04-11T05:42:54.020Z,6.46
2017-04-11T05:43:54.790Z,6.60
2017-04-11T05:44:55.558Z,6.57
2017-04-11T05:45:56.579Z,6.56
2017-04-11T05:46:57.348Z,6.60
2017-04-11T05:47:58.119Z,6.59
2017-04-11T05:48:58.891Z,6.59
2017-04-11T05:49:59.665Z,6.67
2017-04-11T05:51:00.686Z,6.69
2017-04-11T05:52:01.455Z,6.66
2017-04-11T05:53:02.224Z,6.69
2017-04-11T05:54:02.993Z,6.70
2017-04-11T05:55:03.768Z,6.74
2017-04-11T05:56:04.839Z,6.69
2017-04-11T05:57:05.612Z,6.77
2017-04-11T05:58:06.385Z,6.78
2017-04-11T05:59:07.157Z,6.75
2017-04-11T06:00:07.926Z,6.82
2017-04-11T06:01:08.949Z,6.89
2017-04-11T06:02:09.718Z,6.85
2017-04-11T06:03:10.494Z,6.81
2017-04-11T06:04:11.259Z,6.92
2017-04-11T06:05:12.027Z,7.02
2017-04-11T06:06:13.048Z,7.00
2017-04-11T06:07:13.821Z,6.97
2017-04-11T06:08:14.594Z,7.00
2017-04-11T06:09:15.368Z,6.96
2017-04-11T06:10:16.329Z,7.00
2017-04-11T06:11:17.347Z,7.05
2017-04-11T06:12:18.163Z,7.02
2017-04-11T06:13:19.851Z,6.96
2017-04-11T06:14:20.623Z,7.00
2017-04-11T06:15:21.395Z,6.96
2017-04-11T06:16:22.416Z,7.06
2017-04-11T06:17:23.189Z,7.00
2017-04-11T06:18:23.958Z,7.10
2017-04-11T06:19:24.733Z,7.06
2017-04-11T06:20:25.504Z,7.10
2017-04-11T06:21:26.525Z,7.11
2017-04-11T06:22:27.297Z,7.11
2017-04-11T06:23:28.066Z,7.06
2017-04-11T06:24:28.838Z,7.18
2017-04-11T06:25:29.610Z,7.23
2017-04-11T06:26:30.680Z,7.18
2017-04-11T06:27:31.449Z,7.13
2017-04-11T06:28:32.221Z,7.15
2017-04-11T06:29:32.989Z,7.23
2017-04-11T06:30:33.759Z,7.24
2017-04-11T06:31:34.783Z,7.23
2017-04-11T06:32:35.553Z,7.20
2017-04-11T06:33:36.327Z,7.17
2017-04-11T06:34:37.099Z,7.23
2017-04-11T06:35:37.872Z,7.31
2017-04-11T06:36:38.894Z,7.29
2017-04-11T06:37:39.664Z,7.17
2017-04-11T06:38:40.434Z,7.23
2017-04-11T06:39:41.211Z,7.28
2017-04-11T06:40:41.981Z,7.23
2017-04-11T06:41:43.033Z,7.18
2017-04-11T06:42:43.771Z,7.17
2017-04-11T06:43:44.545Z,7.24
2017-04-11T06:44:45.313Z,7.25
2017-04-11T06:45:46.088Z,7.23
2017-04-11T06:46:47.108Z,7.23
2017-04-11T06:47:47.882Z,7.17
2017-04-11T06:48:48.649Z,7.18
2017-04-11T06:49:49.423Z,7.23
2017-04-11T06:50:50.197Z,7.18
2017-04-11T06:51:51.224Z,7.15
2017-04-11T06:52:51.993Z,7.14
2017-04-11T06:53:52.766Z,7.23
2017-04-11T06:54:53.535Z,7.32
2017-04-11T06:55:54.307Z,7.25
2017-04-11T06:56:55.324Z,7.32
2017-04-11T06:57:56.098Z,7.31
2017-04-11T06:58:56.868Z,7.33
2017-04-11T06:59:57.638Z,7.36
2017-04-11T07:00:58.412Z,7.35
2017-04-11T07:01:59.435Z,7.36
2017-04-11T07:03:00.207Z,7.40
2017-04-11T07:04:00.976Z,7.36
2017-04-11T07:05:01.749Z,7.39
2017-04-11T07:06:02.520Z,7.47
2017-04-11T07:07:03.539Z,7.42
2017-04-11T07:08:04.310Z,7.36
2017-04-11T07:09:05.081Z,7.42
2017-04-11T07:10:05.849Z,7.43
2017-04-11T07:11:06.624Z,7.48
2017-04-11T07:12:07.643Z,7.50
2017-04-11T07:13:08.416Z,7.39
2017-04-11T07:14:09.187Z,7.40
2017-04-11T07:15:09.958Z,7.39
2017-04-11T07:16:10.729Z,7.38
2017-04-11T07:17:11.752Z,7.33
2017-04-11T07:18:12.524Z,7.31
2017-04-11T07:19:13.298Z,7.38
2017-04-11T07:20:14.071Z,7.38
2017-04-11T07:21:14.842Z,7.33
2017-04-11T07:22:15.866Z,7.38
2017-04-11T07:23:16.824Z,7.40
2017-04-11T07:24:17.595Z,7.45
2017-04-11T07:25:18.363Z,7.42
2017-04-11T07:26:19.135Z,7.43
2017-04-11T07:27:20.157Z,7.42
2017-04-11T07:28:20.930Z,7.51
2017-04-11T07:29:21.704Z,7.51
2017-04-11T07:30:22.474Z,7.51
2017-04-11T07:31:23.246Z,7.56
2017-04-11T07:32:24.269Z,7.50
2017-04-11T07:33:25.039Z,7.53
2017-04-11T07:34:25.812Z,7.56
2017-04-11T07:35:26.584Z,7.54
2017-04-11T07:36:27.352Z,7.67
2017-04-11T07:37:28.923Z,7.69
2017-04-11T07:38:29.696Z,7.79
2017-04-11T07:39:30.471Z,7.82
2017-04-11T07:40:31.244Z,7.82
2017-04-11T07:41:32.013Z,7.90
2017-04-11T07:42:33.037Z,7.97
2017-04-11T07:43:33.811Z,8.09
2017-04-11T07:44:34.582Z,8.16
2017-04-11T07:45:35.355Z,8.13
2017-04-11T07:46:36.126Z,8.16
2017-04-11T07:47:37.158Z,8.16
2017-04-11T07:48:37.927Z,8.20
2017-04-11T07:49:38.702Z,8.16
2017-04-11T07:50:39.474Z,8.16
2017-04-11T07:51:40.248Z,8.16
2017-04-11T07:52:41.272Z,8.18
2017-04-11T07:53:42.046Z,8.15
2017-04-11T07:54:42.822Z,8.27
2017-04-11T07:55:43.594Z,8.37
2017-04-11T07:56:44.369Z,8.45
2017-04-11T07:57:45.396Z,8.55
2017-04-11T07:58:46.171Z,8.70
2017-04-11T07:59:46.944Z,8.76
2017-04-11T08:00:47.721Z,8.84
2017-04-11T08:01:48.497Z,8.70
2017-04-11T08:02:49.524Z,8.64
2017-04-11T08:03:50.300Z,8.66
2017-04-11T08:04:51.072Z,8.70
2017-04-11T08:05:51.847Z,8.61
2017-04-11T08:06:52.619Z,8.69
2017-04-11T08:07:53.647Z,8.74
2017-04-11T08:08:54.420Z,8.70
2017-04-11T08:09:55.194Z,8.82
2017-04-11T08:10:55.967Z,8.71
2017-04-11T08:11:56.740Z,8.60
2017-04-11T08:12:57.767Z,8.70
2017-04-11T08:13:58.542Z,8.60
2017-04-11T08:14:59.319Z,8.56
2017-04-11T08:16:00.088Z,8.67
2017-04-11T08:17:00.861Z,8.87
2017-04-11T08:18:01.887Z,8.84
2017-04-11T08:19:02.660Z,8.99
2017-04-11T08:20:03.436Z,8.99
2017-04-11T08:21:04.207Z,9.13
2017-04-11T08:22:04.984Z,9.13
2017-04-11T08:23:06.008Z,9.26
2017-04-11T08:24:06.784Z,9.13
2017-04-11T08:25:07.558Z,9.04
2017-04-11T08:26:08.332Z,8.89
2017-04-11T08:27:09.106Z,8.97
2017-04-11T08:28:10.132Z,9.02
2017-04-11T08:29:10.909Z,8.89
2017-04-11T08:30:11.684Z,8.95
2017-04-11T08:31:12.458Z,9.08
2017-04-11T08:32:13.237Z,9.18
2017-04-11T08:33:14.266Z,9.23
2017-04-11T08:34:15.041Z,9.34
2017-04-11T08:35:15.816Z,9.55
2017-04-11T08:36:16.595Z,9.48
2017-04-11T08:37:17.375Z,9.55
2017-04-11T08:38:18.586Z,9.64
2017-04-11T08:39:19.411Z,9.66
2017-04-11T08:40:20.138Z,9.76
2017-04-11T08:41:20.919Z,9.74
2017-04-11T08:42:21.689Z,9.82
2017-04-11T08:43:22.717Z,9.87
2017-04-11T08:44:23.499Z,9.74
2017-04-11T08:45:24.289Z,9.77
2017-04-11T08:46:25.054Z,9.76
2017-04-11T08:47:25.830Z,9.73
2017-04-11T08:48:26.864Z,9.76
2017-04-11T08:49:27.642Z,9.82
2017-04-11T08:50:28.422Z,10.01
2017-04-11T08:51:29.220Z,9.98
2017-04-11T08:52:29.977Z,10.19
2017-04-11T08:53:31.008Z,10.26
2017-04-11T08:54:31.784Z,10.35
2017-04-11T08:55:32.567Z,10.42
2017-04-11T08:56:33.345Z,10.33
2017-04-11T08:57:34.306Z,10.40
2017-04-11T08:58:35.333Z,10.38
2017-04-11T08:59:36.112Z,10.46
2017-04-11T09:00:36.894Z,10.30
2017-04-11T09:01:37.672Z,9.99
2017-04-11T09:02:38.447Z,9.91
2017-04-11T09:03:39.507Z,9.94
2017-04-11T09:04:40.253Z,9.89
2017-04-11T09:05:41.032Z,9.91
2017-04-11T09:06:41.811Z,9.99
2017-04-11T09:07:42.588Z,10.10
2017-04-11T09:08:43.622Z,10.60
2017-04-11T09:09:44.405Z,10.86
2017-04-11T09:10:45.187Z,11.18
2017-04-11T09:11:45.976Z,11.40
2017-04-11T09:12:46.757Z,11.78
2017-04-11T09:13:47.793Z,11.83
2017-04-11T09:14:48.573Z,11.52
2017-04-11T09:15:49.354Z,11.43
2017-04-11T09:16:50.135Z,11.26
2017-04-11T09:17:50.915Z,11.23
2017-04-11T09:18:51.953Z,11.43
2017-04-11T09:19:52.735Z,12.35
2017-04-11T09:20:53.513Z,12.79
2017-04-11T09:21:54.301Z,12.64
2017-04-11T09:22:55.087Z,12.17
2017-04-11T09:23:56.118Z,12.49
2017-04-11T09:24:56.903Z,12.47
2017-04-11T09:25:57.687Z,12.10
2017-04-11T09:26:58.472Z,11.99
2017-04-11T09:27:59.253Z,11.88
2017-04-11T09:29:00.291Z,12.09
2017-04-11T09:30:01.077Z,12.57
2017-04-11T09:31:01.866Z,12.83
2017-04-11T09:32:02.652Z,13.31
2017-04-11T09:33:03.441Z,13.15
2017-04-11T09:34:04.531Z,13.27
2017-04-11T09:35:05.322Z,13.25
2017-04-11T09:36:06.113Z,13.12
2017-04-11T09:37:06.906Z,13.60
2017-04-11T09:38:07.701Z,13.59
2017-04-11T09:39:08.736Z,13.52
2017-04-11T09:40:09.526Z,14.15
2017-04-11T09:41:10.321Z,14.26
2017-04-11T09:42:11.107Z,14.96
2017-04-11T09:43:11.896Z,15.54
2017-04-11T09:44:12.980Z,16.36
2017-04-11T09:45:13.771Z,16.09
2017-04-11T09:46:14.562Z,15.40
2017-04-11T09:47:15.353Z,15.17
2017-04-11T09:48:16.141Z,15.27
2017-04-11T09:49:17.182Z,15.62
2017-04-11T09:50:17.975Z,15.91
2017-04-11T09:51:18.767Z,16.29
2017-04-11T09:52:19.556Z,16.58
2017-04-11T09:53:20.346Z,16.72
2017-04-11T09:54:21.388Z,16.99
2017-04-11T09:55:22.183Z,17.41
2017-04-11T09:56:22.974Z,17.24
2017-04-11T09:57:23.767Z,16.38
2017-04-11T09:58:24.560Z,16.51
2017-04-11T09:59:25.603Z,16.43
2017-04-11T10:00:26.396Z,16.35
2017-04-11T10:01:27.187Z,16.90
2017-04-11T10:02:27.981Z,15.92
2017-04-11T10:03:28.778Z,15.44
2017-04-11T10:04:29.826Z,15.59
2017-04-11T10:05:30.613Z,14.96
2017-04-11T10:06:31.404Z,14.62
2017-04-11T10:07:32.197Z,14.79
2017-04-11T10:08:32.985Z,14.89
2017-04-11T10:09:34.028Z,15.27
2017-04-11T10:10:34.816Z,15.06
2017-04-11T10:11:35.604Z,15.51
2017-04-11T10:12:36.396Z,15.04
2017-04-11T10:13:37.188Z,15.70
2017-04-11T10:14:38.232Z,15.49
2017-04-11T10:15:39.017Z,14.77
2017-04-11T10:16:39.805Z,15.33
2017-04-11T10:17:40.596Z,15.88
2017-04-11T10:18:41.385Z,15.61
2017-04-11T10:19:42.422Z,15.39
2017-04-11T10:20:43.209Z,15.22
2017-04-11T10:21:43.997Z,15.28
2017-04-11T10:22:44.785Z,14.85
2017-04-11T10:23:45.574Z,15.37
2017-04-11T10:24:46.609Z,15.06
2017-04-11T10:25:47.397Z,14.58
2017-04-11T10:26:48.187Z,14.11
2017-04-11T10:27:48.971Z,13.70
2017-04-11T10:28:49.757Z,13.33
2017-04-11T10:29:50.792Z,12.91
2017-04-11T10:30:51.585Z,12.79
2017-04-11T10:31:52.371Z,13.09
2017-04-11T10:32:53.159Z,12.97
2017-04-11T10:33:53.949Z,12.82
2017-04-11T10:34:54.984Z,13.01
2017-04-11T10:35:55.769Z,12.80
2017-04-11T10:36:56.556Z,12.85
2017-04-11T10:37:57.337Z,12.95
2017-04-11T10:38:58.118Z,12.86
2017-04-11T10:39:59.151Z,12.73
2017-04-11T10:40:59.931Z,12.49
2017-04-11T10:42:00.713Z,12.24
2017-04-11T10:43:01.493Z,12.27
2017-04-11T10:44:02.271Z,12.36
2017-04-11T10:45:03.301Z,12.50
2017-04-11T10:46:04.084Z,12.18
2017-04-11T10:47:04.865Z,12.06
2017-04-11T10:48:05.644Z,11.94
2017-04-11T10:49:06.423Z,12.00
2017-04-11T10:50:07.501Z,11.90
2017-04-11T10:51:08.287Z,11.94
2017-04-11T10:52:09.068Z,11.90
2017-04-11T10:53:09.852Z,12.18
2017-04-11T10:54:10.634Z,12.39
2017-04-11T10:55:11.662Z,12.54
2017-04-11T10:56:12.446Z,12.85
2017-04-11T10:57:13.228Z,12.79
2017-04-11T10:58:14.011Z,12.67
2017-04-11T10:59:14.791Z,12.47
2017-04-11T11:00:15.826Z,12.37
2017-04-11T11:01:16.606Z,12.50
2017-04-11T11:02:17.390Z,12.86
2017-04-11T11:03:18.170Z,13.04
2017-04-11T11:04:18.948Z,12.83
2017-04-11T11:05:19.980Z,12.22
2017-04-11T11:06:20.761Z,12.35
2017-04-11T11:07:21.543Z,12.27
2017-04-11T11:08:22.357Z,12.29
2017-04-11T11:09:23.100Z,12.27
2017-04-11T11:10:24.133Z,12.28
2017-04-11T11:11:24.924Z,12.40
2017-04-11T11:12:25.696Z,12.28
2017-04-11T11:13:26.480Z,12.53
2017-04-11T11:14:27.261Z,12.60
2017-04-11T11:15:28.295Z,12.60
2017-04-11T11:16:29.078Z,12.79
2017-04-11T11:17:29.857Z,12.67
2017-04-11T11:18:30.638Z,12.54
2017-04-11T11:19:31.422Z,12.47
2017-04-11T11:20:32.454Z,12.42
2017-04-11T11:21:33.231Z,12.55
2017-04-11T11:22:34.012Z,12.45
2017-04-11T11:23:34.795Z,12.49
2017-04-11T11:24:35.576Z,12.70
2017-04-11T11:25:36.612Z,12.85
2017-04-11T11:26:37.392Z,13.16
2017-04-11T11:27:38.177Z,13.44
2017-04-11T11:28:38.967Z,13.62
2017-04-11T11:29:39.754Z,13.72
2017-04-11T11:30:40.793Z,14.41
2017-04-11T11:31:41.586Z,14.32
2017-04-11T11:32:42.374Z,13.60
2017-04-11T11:33:43.160Z,13.62
2017-04-11T11:34:43.950Z,13.96
2017-04-11T11:35:44.986Z,14.66
2017-04-11T11:36:45.779Z,14.59
2017-04-11T11:37:46.571Z,14.72
2017-04-11T11:38:47.360Z,14.88
2017-04-11T11:39:48.155Z,15.43
2017-04-11T11:40:49.193Z,15.47
2017-04-11T11:41:49.985Z,15.46
2017-04-11T11:42:50.778Z,15.58
2017-04-11T11:43:51.569Z,16.56
2017-04-11T11:44:52.360Z,17.51
2017-04-11T11:45:53.402Z,17.78
2017-04-11T11:46:54.195Z,17.51
2017-04-11T11:47:54.986Z,17.36
2017-04-11T11:48:55.776Z,17.06
2017-04-11T11:49:56.567Z,16.97
2017-04-11T11:50:57.606Z,16.38
2017-04-11T11:51:58.393Z,15.77
2017-04-11T11:52:59.186Z,15.92
2017-04-11T11:54:00.165Z,15.55
2017-04-11T11:55:00.950Z,15.24
2017-04-11T11:56:01.990Z,15.37
2017-04-11T11:57:02.779Z,15.15
2017-04-11T11:58:03.569Z,15.22
2017-04-11T11:59:04.356Z,15.36
2017-04-11T12:00:05.144Z,14.79
2017-04-11T12:01:06.185Z,14.48
2017-04-11T12:02:06.970Z,14.26
2017-04-11T12:03:07.760Z,14.28
2017-04-11T12:04:08.553Z,14.32
2017-04-11T12:05:09.340Z,14.68
2017-04-11T12:06:10.377Z,14.84
2017-04-11T12:07:11.165Z,14.70
2017-04-11T12:08:11.991Z,14.88
2017-04-11T12:09:12.746Z,14.82
2017-04-11T12:10:13.530Z,14.63
2017-04-11T12:11:14.574Z,14.69
2017-04-11T12:12:15.357Z,15.11
2017-04-11T12:13:16.144Z,15.31
2017-04-11T12:14:16.931Z,15.33
2017-04-11T12:15:17.725Z,14.78
2017-04-11T12:16:18.761Z,14.79
2017-04-11T12:17:19.549Z,14.70
2017-04-11T12:18:20.336Z,14.51
2017-04-11T12:19:21.126Z,14.40
2017-04-11T12:20:21.911Z,14.30
2017-04-11T12:21:22.946Z,14.03
2017-04-11T12:22:23.728Z,13.92
2017-04-11T12:23:24.514Z,13.74
2017-04-11T12:24:25.295Z,13.85
2017-04-11T12:25:26.082Z,13.65
2017-04-11T12:26:27.117Z,13.37
2017-04-11T12:27:27.891Z,13.09
2017-04-11T12:28:28.673Z,13.05
2017-04-11T12:29:29.455Z,12.83
2017-04-11T12:30:30.237Z,12.97
2017-04-11T12:31:31.265Z,13.03
2017-04-11T12:32:32.045Z,13.03
2017-04-11T12:33:32.824Z,13.00
2017-04-11T12:34:33.603Z,13.13
2017-04-11T12:35:34.385Z,13.19
2017-04-11T12:36:35.417Z,13.16
2017-04-11T12:37:36.194Z,13.12
2017-04-11T12:38:36.977Z,13.01
2017-04-11T12:39:37.754Z,13.01
2017-04-11T12:40:38.533Z,12.86
2017-04-11T12:41:39.564Z,12.86
2017-04-11T12:42:40.341Z,12.75
2017-04-11T12:43:41.120Z,12.72
2017-04-11T12:44:41.902Z,12.45
2017-04-11T12:45:42.678Z,12.42
2017-04-11T12:46:43.707Z,12.45
2017-04-11T12:47:44.484Z,12.47
2017-04-11T12:48:45.265Z,12.55
2017-04-11T12:49:46.044Z,12.60
2017-04-11T12:50:46.823Z,12.61
2017-04-11T12:51:47.855Z,12.62
2017-04-11T12:52:48.637Z,12.67
2017-04-11T12:53:49.413Z,12.62
2017-04-11T12:54:50.189Z,12.54
2017-04-11T12:55:50.967Z,12.55
2017-04-11T12:56:52.002Z,12.62
2017-04-11T12:57:52.778Z,12.62
2017-04-11T12:58:53.557Z,12.75
2017-04-11T12:59:54.338Z,12.79
2017-04-11T13:00:55.107Z,12.79
2017-04-11T13:01:56.321Z,12.76
2017-04-11T13:02:57.100Z,12.75
2017-04-11T13:03:57.878Z,12.73
2017-04-11T13:04:58.656Z,12.75
2017-04-11T13:05:59.434Z,12.80
2017-04-11T13:07:00.461Z,12.73
2017-04-11T13:08:01.238Z,12.82
2017-04-11T13:09:02.014Z,12.75
2017-04-11T13:10:02.792Z,12.75
2017-04-11T13:11:03.569Z,12.55
2017-04-11T13:12:04.597Z,12.68
2017-04-11T13:13:05.377Z,12.57
2017-04-11T13:14:06.152Z,12.42
2017-04-11T13:15:06.932Z,12.50
2017-04-11T13:16:07.708Z,12.47
2017-04-11T13:17:08.737Z,12.50
2017-04-11T13:18:09.512Z,12.42
2017-04-11T13:19:10.291Z,12.49
2017-04-11T13:20:11.066Z,12.46